sensor_id;sensor_type;location;lat;lon;timestamp;P1;durP1;ratioP1;P2;durP2;ratioP2
34900;SDS011;21112;51.976;5.660;2022-12-10T00:45:35;18.92;;;7.30;;
34900;SDS011;21112;51.976;5.660;2022-12-10T00:48:02;32.20;;;11.30;;
34900;SDS011;21112;51.976;5.660;2022-12-10T00:50:29;27.05;;;10.65;;
34900;SDS011;21112;51.976;5.660;2022-12-10T00:52:56;27.40;;;10.68;;
34900;SDS011;21112;51.976;5.660;2022-12-10T00:55:24;30.42;;;10.77;;
34900;SDS011;21112;51.976;5.660;2022-12-10T00:57:51;25.40;;;10.80;;
34900;SDS011;21112;51.976;5.660;2022-12-10T01:00:18;24.55;;;10.52;;
34900;SDS011;21112;51.976;5.660;2022-12-10T01:02:47;28.15;;;10.38;;
34900;SDS011;21112;51.976;5.660;2022-12-10T01:05:14;25.80;;;9.82;;
34900;SDS011;21112;51.976;5.660;2022-12-10T01:07:41;33.80;;;11.40;;
34900;SDS011;21112;51.976;5.660;2022-12-10T01:10:08;25.27;;;10.25;;
34900;SDS011;21112;51.976;5.660;2022-12-10T01:12:36;28.13;;;11.30;;
34900;SDS011;21112;51.976;5.660;2022-12-10T01:15:05;30.83;;;11.13;;
34900;SDS011;21112;51.976;5.660;2022-12-10T01:17:35;28.70;;;10.40;;
34900;SDS011;21112;51.976;5.660;2022-12-10T01:20:04;31.35;;;11.00;;
34900;SDS011;21112;51.976;5.660;2022-12-10T01:22:32;29.05;;;10.95;;
34900;SDS011;21112;51.976;5.660;2022-12-10T01:25:03;26.80;;;10.35;;
34900;SDS011;21112;51.976;5.660;2022-12-10T01:27:30;29.08;;;10.70;;
34900;SDS011;21112;51.976;5.660;2022-12-10T01:29:57;31.63;;;10.40;;
34900;SDS011;21112;51.976;5.660;2022-12-10T01:32:24;27.20;;;10.93;;
34900;SDS011;21112;51.976;5.660;2022-12-10T01:34:52;29.90;;;11.18;;
34900;SDS011;21112;51.976;5.660;2022-12-10T01:37:20;30.65;;;10.90;;
34900;SDS011;21112;51.976;5.660;2022-12-10T01:42:14;27.55;;;9.43;;
34900;SDS011;21112;51.976;5.660;2022-12-10T01:44:58;31.80;;;11.23;;
34900;SDS011;21112;51.976;5.660;2022-12-10T01:47:31;24.30;;;9.57;;
34900;SDS011;21112;51.976;5.660;2022-12-10T01:49:58;31.27;;;11.38;;
34900;SDS011;21112;51.976;5.660;2022-12-10T01:52:30;28.55;;;11.40;;
34900;SDS011;21112;51.976;5.660;2022-12-10T01:54:57;30.00;;;10.75;;
34900;SDS011;21112;51.976;5.660;2022-12-10T01:57:24;31.05;;;11.68;;
34900;SDS011;21112;51.976;5.660;2022-12-10T01:59:53;27.52;;;12.25;;
34900;SDS011;21112;51.976;5.660;2022-12-10T02:02:24;25.40;;;10.20;;
34900;SDS011;21112;51.976;5.660;2022-12-10T02:04:57;28.83;;;11.13;;
34900;SDS011;21112;51.976;5.660;2022-12-10T02:07:30;33.63;;;12.98;;
34900;SDS011;21112;51.976;5.660;2022-12-10T02:10:02;30.73;;;10.63;;
34900;SDS011;21112;51.976;5.660;2022-12-10T02:12:31;25.77;;;10.70;;
34900;SDS011;21112;51.976;5.660;2022-12-10T02:15:00;29.00;;;11.45;;
34900;SDS011;21112;51.976;5.660;2022-12-10T02:17:29;26.90;;;10.98;;
34900;SDS011;21112;51.976;5.660;2022-12-10T02:20:03;30.13;;;11.45;;
34900;SDS011;21112;51.976;5.660;2022-12-10T02:22:34;26.73;;;10.20;;
34900;SDS011;21112;51.976;5.660;2022-12-10T02:25:02;27.40;;;11.15;;
34900;SDS011;21112;51.976;5.660;2022-12-10T02:27:33;30.52;;;11.18;;
34900;SDS011;21112;51.976;5.660;2022-12-10T02:30:04;27.13;;;10.30;;
34900;SDS011;21112;51.976;5.660;2022-12-10T02:32:33;35.10;;;11.85;;
34900;SDS011;21112;51.976;5.660;2022-12-10T02:35:03;29.35;;;11.15;;
34900;SDS011;21112;51.976;5.660;2022-12-10T02:37:42;31.67;;;10.38;;
34900;SDS011;21112;51.976;5.660;2022-12-10T02:40:11;27.35;;;10.57;;
34900;SDS011;21112;51.976;5.660;2022-12-10T02:42:42;27.15;;;10.23;;
34900;SDS011;21112;51.976;5.660;2022-12-10T02:45:13;26.63;;;10.60;;
34900;SDS011;21112;51.976;5.660;2022-12-10T02:47:40;27.35;;;10.57;;
34900;SDS011;21112;51.976;5.660;2022-12-10T02:50:07;30.60;;;10.82;;
34900;SDS011;21112;51.976;5.660;2022-12-10T02:52:36;28.05;;;10.93;;
34900;SDS011;21112;51.976;5.660;2022-12-10T02:55:03;29.25;;;11.35;;
34900;SDS011;21112;51.976;5.660;2022-12-10T02:57:32;26.48;;;10.60;;
34900;SDS011;21112;51.976;5.660;2022-12-10T03:00:04;33.40;;;11.20;;
34900;SDS011;21112;51.976;5.660;2022-12-10T03:02:34;28.65;;;9.65;;
34900;SDS011;21112;51.976;5.660;2022-12-10T03:05:05;29.30;;;10.95;;
34900;SDS011;21112;51.976;5.660;2022-12-10T03:07:36;27.17;;;10.75;;
34900;SDS011;21112;51.976;5.660;2022-12-10T03:12:32;29.88;;;9.80;;
34900;SDS011;21112;51.976;5.660;2022-12-10T03:15:03;26.83;;;11.32;;
34900;SDS011;21112;51.976;5.660;2022-12-10T03:17:31;30.17;;;10.85;;
34900;SDS011;21112;51.976;5.660;2022-12-10T03:20:00;31.83;;;12.30;;
34900;SDS011;21112;51.976;5.660;2022-12-10T03:22:30;29.55;;;9.77;;
34900;SDS011;21112;51.976;5.660;2022-12-10T03:24:58;28.90;;;10.90;;
34900;SDS011;21112;51.976;5.660;2022-12-10T03:27:26;30.65;;;11.95;;
34900;SDS011;21112;51.976;5.660;2022-12-10T03:29:54;32.47;;;11.43;;
34900;SDS011;21112;51.976;5.660;2022-12-10T03:34:50;25.05;;;8.50;;
34900;SDS011;21112;51.976;5.660;2022-12-10T03:37:18;30.98;;;11.23;;
34900;SDS011;21112;51.976;5.660;2022-12-10T03:39:46;30.23;;;10.93;;
34900;SDS011;21112;51.976;5.660;2022-12-10T03:42:13;29.73;;;11.63;;
34900;SDS011;21112;51.976;5.660;2022-12-10T03:44:40;33.10;;;12.07;;
34900;SDS011;21112;51.976;5.660;2022-12-10T03:47:09;28.33;;;10.88;;
34900;SDS011;21112;51.976;5.660;2022-12-10T03:49:37;27.90;;;10.75;;
34900;SDS011;21112;51.976;5.660;2022-12-10T03:52:06;33.60;;;11.90;;
34900;SDS011;21112;51.976;5.660;2022-12-10T03:54:37;41.35;;;12.70;;
34900;SDS011;21112;51.976;5.660;2022-12-10T03:57:04;30.00;;;12.05;;
34900;SDS011;21112;51.976;5.660;2022-12-10T03:59:31;34.33;;;11.70;;
34900;SDS011;21112;51.976;5.660;2022-12-10T04:01:58;37.08;;;12.43;;
34900;SDS011;21112;51.976;5.660;2022-12-10T04:04:25;33.78;;;12.55;;
34900;SDS011;21112;51.976;5.660;2022-12-10T04:06:52;35.72;;;12.45;;
34900;SDS011;21112;51.976;5.660;2022-12-10T04:09:19;39.97;;;13.38;;
34900;SDS011;21112;51.976;5.660;2022-12-10T04:11:48;34.30;;;11.70;;
34900;SDS011;21112;51.976;5.660;2022-12-10T04:14:15;30.13;;;11.40;;
34900;SDS011;21112;51.976;5.660;2022-12-10T04:16:59;31.83;;;11.90;;
34900;SDS011;21112;51.976;5.660;2022-12-10T04:19:26;36.33;;;12.52;;
34900;SDS011;21112;51.976;5.660;2022-12-10T04:21:53;42.63;;;13.13;;
34900;SDS011;21112;51.976;5.660;2022-12-10T04:24:37;39.50;;;12.93;;
34900;SDS011;21112;51.976;5.660;2022-12-10T04:27:24;38.53;;;13.00;;
34900;SDS011;21112;51.976;5.660;2022-12-10T04:29:52;35.50;;;13.75;;
34900;SDS011;21112;51.976;5.660;2022-12-10T04:32:19;40.58;;;14.00;;
34900;SDS011;21112;51.976;5.660;2022-12-10T04:34:49;43.42;;;13.25;;
34900;SDS011;21112;51.976;5.660;2022-12-10T04:37:16;33.00;;;12.82;;
34900;SDS011;21112;51.976;5.660;2022-12-10T04:39:45;34.25;;;12.80;;
34900;SDS011;21112;51.976;5.660;2022-12-10T04:42:12;36.22;;;13.20;;
34900;SDS011;21112;51.976;5.660;2022-12-10T04:44:41;36.40;;;13.43;;
34900;SDS011;21112;51.976;5.660;2022-12-10T04:49:35;28.35;;;10.27;;
34900;SDS011;21112;51.976;5.660;2022-12-10T04:52:02;39.38;;;12.95;;
34900;SDS011;21112;51.976;5.660;2022-12-10T04:54:32;39.15;;;13.60;;
34900;SDS011;21112;51.976;5.660;2022-12-10T04:56:59;37.22;;;12.93;;
34900;SDS011;21112;51.976;5.660;2022-12-10T04:59:26;48.50;;;13.75;;
34900;SDS011;21112;51.976;5.660;2022-12-10T05:01:55;42.00;;;13.52;;
34900;SDS011;21112;51.976;5.660;2022-12-10T05:04:22;41.55;;;13.82;;
34900;SDS011;21112;51.976;5.660;2022-12-10T05:06:51;35.45;;;12.77;;
34900;SDS011;21112;51.976;5.660;2022-12-10T05:09:18;40.55;;;12.63;;
34900;SDS011;21112;51.976;5.660;2022-12-10T05:11:45;34.80;;;12.27;;
34900;SDS011;21112;51.976;5.660;2022-12-10T05:14:13;40.25;;;12.90;;
34900;SDS011;21112;51.976;5.660;2022-12-10T05:16:40;43.58;;;14.68;;
34900;SDS011;21112;51.976;5.660;2022-12-10T05:19:09;35.15;;;12.70;;
34900;SDS011;21112;51.976;5.660;2022-12-10T05:21:36;40.40;;;13.68;;
34900;SDS011;21112;51.976;5.660;2022-12-10T05:24:21;45.42;;;13.80;;
34900;SDS011;21112;51.976;5.660;2022-12-10T05:26:48;39.28;;;14.00;;
34900;SDS011;21112;51.976;5.660;2022-12-10T05:29:16;40.00;;;14.20;;
34900;SDS011;21112;51.976;5.660;2022-12-10T05:31:43;36.40;;;13.77;;
34900;SDS011;21112;51.976;5.660;2022-12-10T05:34:12;39.97;;;13.40;;
34900;SDS011;21112;51.976;5.660;2022-12-10T05:36:39;39.47;;;13.60;;
34900;SDS011;21112;51.976;5.660;2022-12-10T05:39:06;43.90;;;14.35;;
34900;SDS011;21112;51.976;5.660;2022-12-10T05:41:34;39.17;;;13.73;;
34900;SDS011;21112;51.976;5.660;2022-12-10T05:44:01;38.08;;;13.32;;
34900;SDS011;21112;51.976;5.660;2022-12-10T05:46:33;41.20;;;13.93;;
34900;SDS011;21112;51.976;5.660;2022-12-10T05:49:00;42.20;;;13.88;;
34900;SDS011;21112;51.976;5.660;2022-12-10T05:51:29;37.03;;;12.48;;
34900;SDS011;21112;51.976;5.660;2022-12-10T05:53:57;44.97;;;15.38;;
34900;SDS011;21112;51.976;5.660;2022-12-10T05:56:25;43.85;;;14.18;;
34900;SDS011;21112;51.976;5.660;2022-12-10T05:58:54;38.30;;;13.98;;
34900;SDS011;21112;51.976;5.660;2022-12-10T06:01:21;41.13;;;13.18;;
34900;SDS011;21112;51.976;5.660;2022-12-10T06:03:54;43.10;;;13.75;;
34900;SDS011;21112;51.976;5.660;2022-12-10T06:06:23;38.08;;;13.60;;
34900;SDS011;21112;51.976;5.660;2022-12-10T06:08:53;37.10;;;13.85;;
34900;SDS011;21112;51.976;5.660;2022-12-10T06:11:21;41.95;;;14.73;;
34900;SDS011;21112;51.976;5.660;2022-12-10T06:13:48;43.47;;;14.05;;
34900;SDS011;21112;51.976;5.660;2022-12-10T06:16:15;46.78;;;14.93;;
34900;SDS011;21112;51.976;5.660;2022-12-10T06:18:42;42.08;;;14.23;;
34900;SDS011;21112;51.976;5.660;2022-12-10T06:21:10;43.15;;;14.75;;
34900;SDS011;21112;51.976;5.660;2022-12-10T06:23:37;42.33;;;14.00;;
34900;SDS011;21112;51.976;5.660;2022-12-10T06:26:07;45.80;;;14.20;;
34900;SDS011;21112;51.976;5.660;2022-12-10T06:28:37;42.22;;;13.95;;
34900;SDS011;21112;51.976;5.660;2022-12-10T06:31:04;41.90;;;13.82;;
34900;SDS011;21112;51.976;5.660;2022-12-10T06:33:31;43.50;;;15.00;;
34900;SDS011;21112;51.976;5.660;2022-12-10T06:35:58;45.00;;;15.43;;
34900;SDS011;21112;51.976;5.660;2022-12-10T06:38:25;44.92;;;14.30;;
34900;SDS011;21112;51.976;5.660;2022-12-10T06:40:52;41.15;;;14.02;;
34900;SDS011;21112;51.976;5.660;2022-12-10T06:43:21;41.70;;;14.75;;
34900;SDS011;21112;51.976;5.660;2022-12-10T06:48:15;44.53;;;12.75;;
34900;SDS011;21112;51.976;5.660;2022-12-10T06:50:42;42.53;;;14.30;;
34900;SDS011;21112;51.976;5.660;2022-12-10T06:53:09;52.45;;;14.10;;
34900;SDS011;21112;51.976;5.660;2022-12-10T06:55:36;42.47;;;13.30;;
34900;SDS011;21112;51.976;5.660;2022-12-10T06:58:06;42.58;;;15.02;;
34900;SDS011;21112;51.976;5.660;2022-12-10T07:00:35;52.30;;;15.05;;
34900;SDS011;21112;51.976;5.660;2022-12-10T07:05:30;39.25;;;11.88;;
34900;SDS011;21112;51.976;5.660;2022-12-10T07:07:57;44.15;;;13.63;;
34900;SDS011;21112;51.976;5.660;2022-12-10T07:10:24;48.28;;;14.63;;
34900;SDS011;21112;51.976;5.660;2022-12-10T07:12:52;44.15;;;14.50;;
34900;SDS011;21112;51.976;5.660;2022-12-10T07:15:19;42.58;;;13.65;;
34900;SDS011;21112;51.976;5.660;2022-12-10T07:17:47;49.15;;;14.35;;
34900;SDS011;21112;51.976;5.660;2022-12-10T07:20:15;41.03;;;14.98;;
34900;SDS011;21112;51.976;5.660;2022-12-10T07:22:43;39.08;;;13.57;;
34900;SDS011;21112;51.976;5.660;2022-12-10T07:25:11;42.90;;;14.37;;
34900;SDS011;21112;51.976;5.660;2022-12-10T07:27:38;43.72;;;13.10;;
34900;SDS011;21112;51.976;5.660;2022-12-10T07:30:14;37.80;;;12.30;;
34900;SDS011;21112;51.976;5.660;2022-12-10T07:32:48;41.53;;;13.05;;
34900;SDS011;21112;51.976;5.660;2022-12-10T07:35:15;36.78;;;13.02;;
34900;SDS011;21112;51.976;5.660;2022-12-10T07:40:15;38.50;;;10.63;;
34900;SDS011;21112;51.976;5.660;2022-12-10T07:42:47;38.05;;;12.88;;
34900;SDS011;21112;51.976;5.660;2022-12-10T08:34:54;29.15;;;10.43;;
34900;SDS011;21112;51.976;5.660;2022-12-10T09:10:14;37.65;;;14.05;;
34900;SDS011;21112;51.976;5.660;2022-12-10T09:12:41;36.50;;;11.93;;
34900;SDS011;21112;51.976;5.660;2022-12-10T09:15:08;40.53;;;13.25;;
34900;SDS011;21112;51.976;5.660;2022-12-10T09:17:36;31.27;;;11.60;;
34900;SDS011;21112;51.976;5.660;2022-12-10T09:20:07;34.13;;;12.20;;
34900;SDS011;21112;51.976;5.660;2022-12-10T09:22:35;36.78;;;12.43;;
34900;SDS011;21112;51.976;5.660;2022-12-10T09:25:05;42.90;;;13.15;;
34900;SDS011;21112;51.976;5.660;2022-12-10T09:27:36;35.63;;;12.07;;
34900;SDS011;21112;51.976;5.660;2022-12-10T09:30:05;35.60;;;11.63;;
34900;SDS011;21112;51.976;5.660;2022-12-10T09:33:08;39.72;;;12.00;;
34900;SDS011;21112;51.976;5.660;2022-12-10T09:35:41;30.30;;;11.52;;
34900;SDS011;21112;51.976;5.660;2022-12-10T09:38:09;35.05;;;10.38;;
34900;SDS011;21112;51.976;5.660;2022-12-10T09:40:43;43.13;;;11.45;;
34900;SDS011;21112;51.976;5.660;2022-12-10T09:43:16;27.23;;;9.60;;
34900;SDS011;21112;51.976;5.660;2022-12-10T09:45:52;40.75;;;12.55;;
34900;SDS011;21112;51.976;5.660;2022-12-10T09:48:28;39.65;;;11.27;;
34900;SDS011;21112;51.976;5.660;2022-12-10T09:50:59;34.10;;;10.73;;
34900;SDS011;21112;51.976;5.660;2022-12-10T09:53:32;38.45;;;11.40;;
34900;SDS011;21112;51.976;5.660;2022-12-10T09:56:05;35.85;;;10.02;;
34900;SDS011;21112;51.976;5.660;2022-12-10T09:58:42;35.75;;;11.63;;
34900;SDS011;21112;51.976;5.660;2022-12-10T10:01:19;32.47;;;11.05;;
34900;SDS011;21112;51.976;5.660;2022-12-10T17:49:54;28.48;;;8.75;;
34900;SDS011;21112;51.976;5.660;2022-12-10T18:30:25;58.38;;;17.38;;
34900;SDS011;21112;51.976;5.660;2022-12-10T18:32:52;61.08;;;22.35;;
34900;SDS011;21112;51.976;5.660;2022-12-10T18:35:20;70.45;;;25.02;;
34900;SDS011;21112;51.976;5.660;2022-12-10T18:37:46;71.25;;;24.98;;
34900;SDS011;21112;51.976;5.660;2022-12-10T18:40:18;70.78;;;23.40;;
34900;SDS011;21112;51.976;5.660;2022-12-10T18:42:47;52.75;;;23.30;;
34900;SDS011;21112;51.976;5.660;2022-12-10T18:45:15;70.22;;;23.95;;
34900;SDS011;21112;51.976;5.660;2022-12-10T18:47:44;67.82;;;23.30;;
34900;SDS011;21112;51.976;5.660;2022-12-10T18:50:14;57.25;;;22.30;;
34900;SDS011;21112;51.976;5.660;2022-12-10T18:52:45;65.05;;;21.70;;
34900;SDS011;21112;51.976;5.660;2022-12-10T18:55:14;55.65;;;20.73;;
34900;SDS011;21112;51.976;5.660;2022-12-10T18:57:43;60.05;;;20.23;;
34900;SDS011;21112;51.976;5.660;2022-12-10T19:00:11;60.22;;;19.38;;
34900;SDS011;21112;51.976;5.660;2022-12-10T19:02:38;60.15;;;20.30;;
34900;SDS011;21112;51.976;5.660;2022-12-10T19:05:07;50.20;;;18.58;;
34900;SDS011;21112;51.976;5.660;2022-12-10T19:10:03;44.83;;;16.00;;
34900;SDS011;21112;51.976;5.660;2022-12-10T19:12:31;55.63;;;18.35;;
34900;SDS011;21112;51.976;5.660;2022-12-10T19:14:58;51.08;;;18.38;;
34900;SDS011;21112;51.976;5.660;2022-12-10T19:17:25;60.80;;;17.38;;
34900;SDS011;21112;51.976;5.660;2022-12-10T19:19:52;49.80;;;17.92;;
34900;SDS011;21112;51.976;5.660;2022-12-10T19:22:21;55.72;;;17.08;;
34900;SDS011;21112;51.976;5.660;2022-12-10T19:24:53;52.50;;;17.00;;
34900;SDS011;21112;51.976;5.660;2022-12-10T19:27:21;52.80;;;16.58;;
34900;SDS011;21112;51.976;5.660;2022-12-10T19:29:49;46.10;;;16.15;;
34900;SDS011;21112;51.976;5.660;2022-12-10T19:32:18;44.83;;;16.33;;
34900;SDS011;21112;51.976;5.660;2022-12-10T19:34:45;47.95;;;15.02;;
34900;SDS011;21112;51.976;5.660;2022-12-10T19:37:14;56.38;;;17.55;;
34900;SDS011;21112;51.976;5.660;2022-12-10T19:39:44;42.80;;;14.70;;
34900;SDS011;21112;51.976;5.660;2022-12-10T19:42:10;43.58;;;14.57;;
34900;SDS011;21112;51.976;5.660;2022-12-10T19:44:37;53.22;;;15.98;;
34900;SDS011;21112;51.976;5.660;2022-12-10T19:47:05;46.40;;;15.48;;
34900;SDS011;21112;51.976;5.660;2022-12-10T19:49:32;45.80;;;15.18;;
34900;SDS011;21112;51.976;5.660;2022-12-10T19:52:00;43.33;;;15.27;;
34900;SDS011;21112;51.976;5.660;2022-12-10T19:54:26;41.17;;;14.30;;
34900;SDS011;21112;51.976;5.660;2022-12-10T19:56:55;57.85;;;14.90;;
34900;SDS011;21112;51.976;5.660;2022-12-10T19:59:21;38.20;;;13.15;;
34900;SDS011;21112;51.976;5.660;2022-12-10T20:01:49;48.08;;;15.43;;
34900;SDS011;21112;51.976;5.660;2022-12-10T20:04:15;42.97;;;14.60;;
34900;SDS011;21112;51.976;5.660;2022-12-10T20:06:43;44.50;;;14.70;;
34900;SDS011;21112;51.976;5.660;2022-12-10T20:09:14;46.65;;;13.52;;
34900;SDS011;21112;51.976;5.660;2022-12-10T20:11:43;43.45;;;14.05;;
34900;SDS011;21112;51.976;5.660;2022-12-10T20:14:11;39.20;;;12.55;;
34900;SDS011;21112;51.976;5.660;2022-12-10T20:16:41;45.03;;;12.65;;
34900;SDS011;21112;51.976;5.660;2022-12-10T20:19:10;41.67;;;13.00;;
34900;SDS011;21112;51.976;5.660;2022-12-10T20:21:38;40.90;;;13.20;;
34900;SDS011;21112;51.976;5.660;2022-12-10T20:24:06;42.08;;;12.88;;
34900;SDS011;21112;51.976;5.660;2022-12-10T20:26:33;45.83;;;12.98;;
34900;SDS011;21112;51.976;5.660;2022-12-10T20:29:01;44.10;;;12.17;;
34900;SDS011;21112;51.976;5.660;2022-12-10T20:31:32;36.60;;;12.30;;
34900;SDS011;21112;51.976;5.660;2022-12-10T20:33:59;39.10;;;11.85;;
34900;SDS011;21112;51.976;5.660;2022-12-10T20:36:26;35.65;;;11.35;;
34900;SDS011;21112;51.976;5.660;2022-12-10T20:38:53;37.08;;;12.75;;
34900;SDS011;21112;51.976;5.660;2022-12-10T20:41:20;42.80;;;11.68;;
34900;SDS011;21112;51.976;5.660;2022-12-10T20:43:47;39.58;;;12.35;;
34900;SDS011;21112;51.976;5.660;2022-12-10T20:46:14;43.47;;;11.70;;
34900;SDS011;21112;51.976;5.660;2022-12-10T20:48:43;41.30;;;11.60;;
34900;SDS011;21112;51.976;5.660;2022-12-10T20:51:15;33.92;;;12.00;;
34900;SDS011;21112;51.976;5.660;2022-12-10T20:53:42;39.75;;;10.57;;
34900;SDS011;21112;51.976;5.660;2022-12-10T20:56:13;35.80;;;11.38;;
34900;SDS011;21112;51.976;5.660;2022-12-10T20:58:41;32.00;;;10.55;;
34900;SDS011;21112;51.976;5.660;2022-12-10T21:01:11;37.75;;;10.77;;
34900;SDS011;21112;51.976;5.660;2022-12-10T21:03:38;30.77;;;10.75;;
34900;SDS011;21112;51.976;5.660;2022-12-10T21:06:09;36.20;;;10.40;;
34900;SDS011;21112;51.976;5.660;2022-12-10T21:08:36;31.70;;;10.20;;
34900;SDS011;21112;51.976;5.660;2022-12-10T21:13:32;28.30;;;9.32;;
34900;SDS011;21112;51.976;5.660;2022-12-10T21:16:00;35.72;;;10.38;;
34900;SDS011;21112;51.976;5.660;2022-12-10T21:18:28;38.00;;;10.87;;
34900;SDS011;21112;51.976;5.660;2022-12-10T21:20:55;34.05;;;10.07;;
34900;SDS011;21112;51.976;5.660;2022-12-10T21:23:25;34.35;;;10.88;;
34900;SDS011;21112;51.976;5.660;2022-12-10T21:25:52;32.85;;;10.38;;
34900;SDS011;21112;51.976;5.660;2022-12-10T21:28:20;33.45;;;10.25;;
34900;SDS011;21112;51.976;5.660;2022-12-10T21:30:47;24.40;;;9.40;;
34900;SDS011;21112;51.976;5.660;2022-12-10T21:33:19;34.08;;;10.20;;
34900;SDS011;21112;51.976;5.660;2022-12-10T21:35:46;34.53;;;10.10;;
34900;SDS011;21112;51.976;5.660;2022-12-10T21:38:14;32.75;;;9.93;;
34900;SDS011;21112;51.976;5.660;2022-12-10T21:40:43;30.85;;;9.52;;
34900;SDS011;21112;51.976;5.660;2022-12-10T21:43:14;33.72;;;9.43;;
34900;SDS011;21112;51.976;5.660;2022-12-10T21:45:40;33.67;;;10.10;;
34900;SDS011;21112;51.976;5.660;2022-12-10T21:48:07;34.20;;;9.77;;
34900;SDS011;21112;51.976;5.660;2022-12-10T21:50:34;29.58;;;9.80;;
34900;SDS011;21112;51.976;5.660;2022-12-10T21:53:01;26.90;;;9.73;;
34900;SDS011;21112;51.976;5.660;2022-12-10T21:55:28;30.20;;;9.38;;
34900;SDS011;21112;51.976;5.660;2022-12-10T21:57:57;28.35;;;9.10;;
34900;SDS011;21112;51.976;5.660;2022-12-10T22:00:24;28.27;;;9.60;;
34900;SDS011;21112;51.976;5.660;2022-12-10T22:02:51;29.80;;;8.43;;
34900;SDS011;21112;51.976;5.660;2022-12-10T22:05:18;26.60;;;8.80;;
34900;SDS011;21112;51.976;5.660;2022-12-10T22:07:45;30.65;;;9.75;;
34900;SDS011;21112;51.976;5.660;2022-12-10T22:10:11;33.50;;;9.25;;
34900;SDS011;21112;51.976;5.660;2022-12-10T22:12:39;26.20;;;9.15;;
34900;SDS011;21112;51.976;5.660;2022-12-10T22:15:12;37.75;;;9.75;;
34900;SDS011;21112;51.976;5.660;2022-12-10T22:17:38;26.60;;;8.88;;
34900;SDS011;21112;51.976;5.660;2022-12-10T22:20:08;27.30;;;9.02;;
34900;SDS011;21112;51.976;5.660;2022-12-10T22:22:37;27.80;;;9.35;;
34900;SDS011;21112;51.976;5.660;2022-12-10T22:25:09;29.42;;;8.50;;
34900;SDS011;21112;51.976;5.660;2022-12-10T22:27:35;32.03;;;9.57;;
34900;SDS011;21112;51.976;5.660;2022-12-10T22:30:04;30.83;;;8.70;;
34900;SDS011;21112;51.976;5.660;2022-12-10T22:32:39;29.05;;;10.00;;
34900;SDS011;21112;51.976;5.660;2022-12-10T22:35:10;32.55;;;8.80;;
34900;SDS011;21112;51.976;5.660;2022-12-10T22:37:37;28.58;;;8.68;;
34900;SDS011;21112;51.976;5.660;2022-12-10T22:40:09;23.88;;;8.85;;
34900;SDS011;21112;51.976;5.660;2022-12-10T22:42:37;28.00;;;9.13;;
34900;SDS011;21112;51.976;5.660;2022-12-10T22:45:06;29.33;;;8.55;;
34900;SDS011;21112;51.976;5.660;2022-12-10T22:47:38;34.38;;;9.68;;
34900;SDS011;21112;51.976;5.660;2022-12-10T22:50:08;26.35;;;8.25;;
34900;SDS011;21112;51.976;5.660;2022-12-10T22:52:35;29.20;;;8.88;;
34900;SDS011;21112;51.976;5.660;2022-12-10T22:55:02;21.98;;;8.05;;
34900;SDS011;21112;51.976;5.660;2022-12-10T22:57:38;29.10;;;8.90;;
34900;SDS011;21112;51.976;5.660;2022-12-10T23:00:08;31.58;;;9.05;;
34900;SDS011;21112;51.976;5.660;2022-12-10T23:02:46;31.00;;;9.10;;
34900;SDS011;21112;51.976;5.660;2022-12-10T23:12:50;25.80;;;8.82;;
34900;SDS011;21112;51.976;5.660;2022-12-10T23:15:37;26.67;;;8.02;;
34900;SDS011;21112;51.976;5.660;2022-12-10T23:18:04;28.67;;;9.30;;
34900;SDS011;21112;51.976;5.660;2022-12-10T23:20:34;23.75;;;8.05;;
34900;SDS011;21112;51.976;5.660;2022-12-10T23:23:01;31.35;;;9.05;;
34900;SDS011;21112;51.976;5.660;2022-12-10T23:25:31;32.30;;;11.00;;
34900;SDS011;21112;51.976;5.660;2022-12-10T23:28:02;30.75;;;9.75;;
34900;SDS011;21112;51.976;5.660;2022-12-10T23:30:32;28.17;;;8.82;;
34900;SDS011;21112;51.976;5.660;2022-12-10T23:33:10;23.48;;;8.55;;
34900;SDS011;21112;51.976;5.660;2022-12-10T23:35:38;33.28;;;8.57;;
34900;SDS011;21112;51.976;5.660;2022-12-10T23:38:05;32.92;;;9.18;;
34900;SDS011;21112;51.976;5.660;2022-12-10T23:40:32;28.70;;;8.57;;
34900;SDS011;21112;51.976;5.660;2022-12-10T23:42:59;26.98;;;8.43;;
34900;SDS011;21112;51.976;5.660;2022-12-10T23:45:27;30.45;;;9.20;;
34900;SDS011;21112;51.976;5.660;2022-12-10T23:47:57;29.02;;;9.25;;
34900;SDS011;21112;51.976;5.660;2022-12-10T23:50:23;25.40;;;8.02;;
34900;SDS011;21112;51.976;5.660;2022-12-10T23:52:50;33.05;;;9.00;;
34900;SDS011;21112;51.976;5.660;2022-12-10T23:55:18;24.52;;;8.18;;
34900;SDS011;21112;51.976;5.660;2022-12-10T23:57:46;29.35;;;9.07;;
